Time;durP1;ratioP1;P1;durP2;ratioP2;P2;SDS_P1;SDS_P2;PMS_P1;PMS_P2;Temp;Humidity;BMP_temperature;BMP_pressure;BME280_temperature;BME280_humidity;BME280_pressure;Samples;Min_cycle;Max_cycle;Signal;HPM_P1;HPM_P2
2023/12/31 00:01:04;;;;;;;4.45;1.75;;;7.10;99.90;;;;;;4823475;29;20058;-66
2023/12/31 00:03:29;;;;;;;10.88;1.67;;;7.00;99.90;;;;;;4822525;29;20039;-67
2023/12/31 00:05:55;;;;;;;3.22;1.13;;;7.00;99.90;;;;;;4823293;29;20531;-67
2023/12/31 00:08:21;;;;;;;2.03;0.90;;;7.00;99.90;;;;;;4822438;29;20457;-66
2023/12/31 00:10:46;;;;;;;3.72;1.67;;;7.00;99.90;;;;;;4807740;29;20548;-66
2023/12/31 00:13:12;;;;;;;4.82;1.58;;;7.00;99.90;;;;;;4826443;29;20038;-66
2023/12/31 00:15:38;;;;;;;1.98;1.13;;;7.00;99.90;;;;;;4806302;29;20403;-66
2023/12/31 00:18:04;;;;;;;3.42;1.35;;;6.90;99.90;;;;;;4796988;29;20597;-66
2023/12/31 00:20:30;;;;;;;3.28;1.30;;;7.00;99.90;;;;;;4823006;29;20041;-66
2023/12/31 00:22:56;;;;;;;3.67;1.48;;;6.90;99.90;;;;;;4825765;29;20026;-67
2023/12/31 00:25:21;;;;;;;2.28;1.25;;;7.00;99.90;;;;;;4823372;29;20029;-66
2023/12/31 00:27:47;;;;;;;2.20;1.20;;;7.00;99.90;;;;;;4823509;29;20117;-66
2023/12/31 00:30:13;;;;;;;1.92;0.93;;;7.00;99.90;;;;;;4806598;29;20600;-66
2023/12/31 00:32:39;;;;;;;2.08;1.13;;;7.10;99.90;;;;;;4821281;29;20460;-65
2023/12/31 00:35:05;;;;;;;1.20;0.82;;;7.20;99.90;;;;;;4805093;29;20068;-66
2023/12/31 00:37:31;;;;;;;4.07;1.27;;;7.20;99.90;;;;;;4822945;29;20045;-66
2023/12/31 00:39:56;;;;;;;2.85;1.27;;;7.10;99.90;;;;;;4822529;29;20029;-66
2023/12/31 00:42:22;;;;;;;3.53;1.25;;;7.20;99.90;;;;;;4822026;29;20037;-66
2023/12/31 00:44:48;;;;;;;2.30;1.23;;;7.10;99.90;;;;;;4809076;29;20034;-66
2023/12/31 00:47:14;;;;;;;2.10;0.75;;;7.10;99.90;;;;;;4823372;29;20697;-66
2023/12/31 00:49:39;;;;;;;7.13;1.67;;;7.30;99.90;;;;;;4806611;29;20044;-66
2023/12/31 00:52:06;;;;;;;4.15;0.90;;;7.20;99.90;;;;;;4823273;29;20038;-66
2023/12/31 00:54:31;;;;;;;4.53;1.08;;;7.20;99.90;;;;;;4804724;29;20102;-66
2023/12/31 00:56:58;;;;;;;2.58;1.08;;;7.20;99.90;;;;;;4821904;29;20039;-66
2023/12/31 00:59:24;;;;;;;1.17;0.88;;;7.00;99.90;;;;;;4822448;29;20137;-67
2023/12/31 01:01:50;;;;;;;4.93;1.40;;;7.00;99.90;;;;;;4822807;29;20113;-66
2023/12/31 01:04:16;;;;;;;3.45;1.30;;;7.00;99.90;;;;;;4822380;29;20035;-67
2023/12/31 01:06:42;;;;;;;1.25;0.80;;;7.00;99.90;;;;;;4806276;29;20027;-66
2023/12/31 01:09:09;;;;;;;2.15;1.35;;;7.00;99.90;;;;;;4822177;29;20042;-66
2023/12/31 01:11:35;;;;;;;5.30;1.23;;;7.00;99.90;;;;;;4806387;29;20034;-66
2023/12/31 01:14:01;;;;;;;5.68;1.77;;;7.00;99.90;;;;;;4822513;29;20030;-67
2023/12/31 01:16:27;;;;;;;2.40;1.20;;;7.00;99.90;;;;;;4806183;29;20038;-66
2023/12/31 01:18:53;;;;;;;1.95;1.52;;;7.00;99.90;;;;;;4821409;29;20027;-66
2023/12/31 01:21:20;;;;;;;3.70;1.25;;;7.00;99.90;;;;;;4822876;29;20620;-65
2023/12/31 01:23:46;;;;;;;1.63;1.25;;;7.00;99.90;;;;;;4822274;29;20031;-65
2023/12/31 01:26:11;;;;;;;4.18;1.52;;;7.00;99.90;;;;;;4822864;29;20038;-65
2023/12/31 01:28:37;;;;;;;2.38;1.05;;;7.00;99.90;;;;;;4821889;29;20030;-66
2023/12/31 01:31:05;;;;;;;1.67;0.75;;;6.90;99.90;;;;;;4822559;29;20145;-65
2023/12/31 01:33:31;;;;;;;1.52;1.05;;;7.00;99.90;;;;;;4822675;29;20031;-66
2023/12/31 01:35:56;;;;;;;3.67;1.92;;;7.00;99.90;;;;;;4822084;29;20426;-65
2023/12/31 01:38:22;;;;;;;3.22;1.27;;;7.00;99.90;;;;;;4822316;29;20175;-66
2023/12/31 01:40:52;;;;;;;2.65;1.25;;;7.00;99.90;;;;;;4821381;29;20030;-66
2023/12/31 01:43:19;;;;;;;1.60;0.85;;;6.90;99.90;;;;;;4821184;29;20022;-66
2023/12/31 01:45:45;;;;;;;1.73;1.17;;;7.00;99.90;;;;;;4819874;29;20395;-65
2023/12/31 01:48:11;;;;;;;2.60;0.90;;;7.00;99.90;;;;;;4822160;29;20038;-65
2023/12/31 01:50:37;;;;;;;2.97;1.05;;;7.10;99.90;;;;;;4805364;29;20049;-65
2023/12/31 01:53:06;;;;;;;3.65;1.15;;;7.00;99.90;;;;;;4806026;29;20548;-65
2023/12/31 01:55:32;;;;;;;3.70;1.40;;;7.00;99.90;;;;;;4821886;29;20034;-65
2023/12/31 01:57:58;;;;;;;3.55;0.93;;;7.00;99.90;;;;;;4805198;29;20026;-66
2023/12/31 02:00:24;;;;;;;4.57;1.80;;;6.90;99.90;;;;;;4805355;29;20048;-66
2023/12/31 02:02:53;;;;;;;1.77;1.00;;;6.90;99.90;;;;;;4821938;29;20129;-66
2023/12/31 02:05:19;;;;;;;2.58;1.30;;;6.80;99.90;;;;;;4815445;29;20134;-66
2023/12/31 02:07:44;;;;;;;3.08;1.23;;;6.70;99.90;;;;;;4814254;29;20128;-66
2023/12/31 02:10:10;;;;;;;2.50;1.33;;;6.70;99.90;;;;;;4819322;29;20038;-66
2023/12/31 02:12:37;;;;;;;2.58;1.35;;;6.70;99.90;;;;;;4805914;29;20034;-66
2023/12/31 02:15:03;;;;;;;1.85;1.17;;;6.70;99.90;;;;;;4802401;29;20125;-66
2023/12/31 02:17:28;;;;;;;2.75;0.90;;;6.70;99.90;;;;;;4821549;29;20109;-66
2023/12/31 02:19:54;;;;;;;2.22;1.15;;;6.70;99.90;;;;;;4821633;29;20121;-66
2023/12/31 02:22:21;;;;;;;2.92;1.40;;;6.70;99.90;;;;;;4805373;29;20396;-66
2023/12/31 02:24:48;;;;;;;2.67;1.17;;;6.70;99.90;;;;;;4817698;29;20086;-66
2023/12/31 02:27:15;;;;;;;3.20;1.20;;;6.60;99.90;;;;;;4806003;29;20122;-66
2023/12/31 02:29:44;;;;;;;2.53;1.27;;;6.60;99.90;;;;;;4820649;29;20057;-66
2023/12/31 02:32:09;;;;;;;2.72;1.38;;;6.60;99.90;;;;;;4820904;29;20457;-66
2023/12/31 02:34:35;;;;;;;1.98;1.30;;;6.60;99.90;;;;;;4820944;29;20117;-66
2023/12/31 02:37:01;;;;;;;2.78;0.95;;;6.70;99.90;;;;;;4821628;29;20038;-66
2023/12/31 02:39:28;;;;;;;2.35;1.10;;;6.80;99.90;;;;;;4820638;29;20034;-66
2023/12/31 02:41:53;;;;;;;3.05;1.63;;;6.90;99.90;;;;;;4803514;29;20031;-66
2023/12/31 02:44:19;;;;;;;3.30;1.45;;;6.80;99.90;;;;;;4820711;29;20087;-66
2023/12/31 02:46:45;;;;;;;3.95;1.35;;;6.70;99.90;;;;;;4820257;29;20597;-66
2023/12/31 02:49:13;;;;;;;2.97;1.80;;;6.70;99.90;;;;;;4818118;29;20041;-66
2023/12/31 02:51:48;;;;;;;4.15;1.52;;;6.60;99.90;;;;;;4805645;29;20365;-66
2023/12/31 02:54:13;;;;;;;2.78;1.50;;;6.50;99.90;;;;;;4806697;29;20408;-65
2023/12/31 02:56:41;;;;;;;2.53;1.20;;;6.40;99.90;;;;;;4824565;29;20035;-65
2023/12/31 02:59:07;;;;;;;5.85;1.33;;;6.30;99.90;;;;;;4824245;29;20314;-65
2023/12/31 03:01:33;;;;;;;3.75;1.50;;;6.30;99.90;;;;;;4824902;29;20078;-66
2023/12/31 03:03:58;;;;;;;1.85;1.10;;;6.20;99.90;;;;;;4824130;29;20053;-65
2023/12/31 03:06:30;;;;;;;1.80;1.20;;;6.30;99.90;;;;;;4825015;29;20037;-65
2023/12/31 03:08:58;;;;;;;3.63;1.60;;;6.30;99.90;;;;;;4808493;29;20121;-65
2023/12/31 03:11:25;;;;;;;9.93;2.00;;;6.30;99.90;;;;;;4824904;29;20036;-65
2023/12/31 03:13:52;;;;;;;4.05;1.75;;;6.30;99.90;;;;;;4793282;29;20030;-65
2023/12/31 03:16:18;;;;;;;4.25;1.10;;;6.40;99.90;;;;;;4822555;29;20491;-65
2023/12/31 03:18:44;;;;;;;14.15;1.90;;;6.50;99.90;;;;;;4820291;29;20472;-65
2023/12/31 03:21:16;;;;;;;3.63;1.40;;;6.50;99.90;;;;;;4823343;29;20030;-65
2023/12/31 03:23:42;;;;;;;2.95;1.50;;;6.60;99.90;;;;;;4822790;29;20037;-65
2023/12/31 03:26:07;;;;;;;3.45;1.55;;;6.70;99.90;;;;;;4795156;29;20034;-65
2023/12/31 03:28:33;;;;;;;2.88;1.17;;;6.60;99.90;;;;;;4822689;29;20030;-65
2023/12/31 03:30:59;;;;;;;4.85;1.85;;;6.60;99.90;;;;;;4822118;29;20377;-65
2023/12/31 03:33:27;;;;;;;3.17;2.03;;;6.70;99.90;;;;;;4808231;29;20050;-65
2023/12/31 03:35:53;;;;;;;4.05;1.63;;;6.70;99.90;;;;;;4791862;29;20030;-65
2023/12/31 03:38:19;;;;;;;2.25;1.35;;;6.60;99.90;;;;;;4823918;29;20636;-65
2023/12/31 03:40:44;;;;;;;3.13;1.35;;;6.50;99.90;;;;;;4823806;29;20059;-65
2023/12/31 03:43:10;;;;;;;4.03;1.95;;;6.40;99.90;;;;;;4824140;29;20483;-65
2023/12/31 03:45:39;;;;;;;5.38;2.13;;;6.30;99.90;;;;;;4824134;29;20093;-66
2023/12/31 03:48:05;;;;;;;6.70;2.50;;;6.30;99.90;;;;;;4821265;29;20042;-65
2023/12/31 03:50:31;;;;;;;3.17;1.50;;;6.30;99.90;;;;;;4824812;29;20060;-66
2023/12/31 03:52:57;;;;;;;2.60;1.98;;;6.30;99.90;;;;;;4824104;29;20046;-65
2023/12/31 03:55:23;;;;;;;4.45;1.65;;;6.30;99.90;;;;;;4823574;29;20117;-66
2023/12/31 03:57:49;;;;;;;2.97;1.58;;;6.30;99.90;;;;;;4823485;29;20454;-65
2023/12/31 04:00:16;;;;;;;6.60;3.03;;;6.40;99.90;;;;;;4822312;29;20043;-65
2023/12/31 04:02:42;;;;;;;3.10;1.88;;;6.40;99.90;;;;;;4807622;29;20027;-66
2023/12/31 04:05:08;;;;;;;5.22;2.55;;;6.40;99.90;;;;;;4823722;29;20050;-66
2023/12/31 04:07:34;;;;;;;2.83;1.70;;;6.50;99.90;;;;;;4822894;29;20101;-65
2023/12/31 04:10:01;;;;;;;3.75;1.92;;;6.50;99.90;;;;;;4807738;29;20469;-65
2023/12/31 04:12:26;;;;;;;4.28;2.10;;;6.40;99.90;;;;;;4822975;29;20099;-66
2023/12/31 04:14:52;;;;;;;7.63;2.33;;;6.40;99.90;;;;;;4821585;29;20035;-66
2023/12/31 04:17:21;;;;;;;4.20;2.03;;;6.40;99.90;;;;;;4791984;29;20042;-66
2023/12/31 04:19:47;;;;;;;6.03;2.75;;;6.40;99.90;;;;;;4805654;29;20046;-65
2023/12/31 04:22:13;;;;;;;2.75;1.33;;;6.30;99.90;;;;;;4823867;29;20038;-66
2023/12/31 04:27:06;;;;;;;3.10;1.55;;;6.40;99.90;;;;;;4839758;29;20467;-66
2023/12/31 04:29:32;;;;;;;3.65;1.73;;;6.50;99.90;;;;;;4841416;29;20108;-64
2023/12/31 04:31:58;;;;;;;4.15;1.80;;;6.60;99.90;;;;;;4841005;29;20038;-66
2023/12/31 04:34:24;;;;;;;3.47;1.52;;;6.60;99.90;;;;;;4841595;29;20029;-66
2023/12/31 04:36:52;;;;;;;2.70;1.98;;;6.60;99.90;;;;;;4840825;29;20669;-65
2023/12/31 04:39:17;;;;;;;2.55;1.33;;;6.70;99.90;;;;;;4841286;29;20069;-65
2023/12/31 04:41:43;;;;;;;2.05;1.13;;;6.80;99.90;;;;;;4840726;29;20110;-64
2023/12/31 04:44:09;;;;;;;4.20;1.38;;;6.80;99.90;;;;;;4841458;29;20502;-65
2023/12/31 04:46:34;;;;;;;7.05;1.45;;;6.90;99.90;;;;;;4840861;29;20030;-65
2023/12/31 04:49:00;;;;;;;3.35;1.70;;;6.90;99.90;;;;;;4841004;29;20022;-65
2023/12/31 04:51:28;;;;;;;5.82;1.85;;;6.90;99.90;;;;;;4840576;29;20570;-65
2023/12/31 04:53:57;;;;;;;4.43;1.92;;;6.90;99.90;;;;;;4841457;29;20431;-65
2023/12/31 04:56:26;;;;;;;4.97;1.95;;;6.90;99.90;;;;;;4823691;29;20053;-65
2023/12/31 04:58:57;;;;;;;3.00;1.50;;;6.90;99.90;;;;;;4840566;29;20130;-65
2023/12/31 05:01:23;;;;;;;3.40;1.27;;;7.00;99.90;;;;;;4840355;29;20041;-65
2023/12/31 05:03:49;;;;;;;3.05;1.70;;;6.90;99.90;;;;;;4840941;29;20839;-65
2023/12/31 05:06:15;;;;;;;3.08;1.33;;;6.90;99.90;;;;;;4840831;29;20041;-65
2023/12/31 05:08:45;;;;;;;2.83;1.58;;;7.00;99.90;;;;;;4840648;29;20034;-66
2023/12/31 05:11:14;;;;;;;2.22;1.13;;;7.00;99.90;;;;;;4840606;29;20041;-66
2023/12/31 05:13:41;;;;;;;2.17;1.38;;;7.00;99.90;;;;;;4839711;29;20062;-65
2023/12/31 05:16:13;;;;;;;1.83;1.17;;;7.00;99.90;;;;;;4837343;29;20041;-65
2023/12/31 05:18:46;;;;;;;2.30;1.15;;;7.00;99.90;;;;;;4840440;29;20034;-65
2023/12/31 05:21:12;;;;;;;2.72;1.10;;;7.10;99.90;;;;;;4836324;29;20034;-65
2023/12/31 05:23:39;;;;;;;3.08;1.27;;;7.10;99.90;;;;;;4840825;29;20065;-66
2023/12/31 05:26:05;;;;;;;4.00;1.40;;;7.10;99.90;;;;;;4840364;29;20078;-65
2023/12/31 05:28:31;;;;;;;3.50;1.60;;;7.00;99.90;;;;;;4839298;29;20542;-66
2023/12/31 05:30:57;;;;;;;5.32;1.40;;;7.00;99.90;;;;;;4840215;29;20217;-65
2023/12/31 05:33:23;;;;;;;2.35;1.80;;;7.10;99.90;;;;;;4840657;29;20034;-65
2023/12/31 05:35:49;;;;;;;4.55;1.75;;;7.00;99.90;;;;;;4823817;29;20038;-66
2023/12/31 05:38:16;;;;;;;2.50;1.38;;;7.00;99.90;;;;;;4840252;29;20090;-65
2023/12/31 05:40:42;;;;;;;2.70;1.48;;;7.00;99.90;;;;;;4839014;29;20030;-66
2023/12/31 05:43:08;;;;;;;2.35;1.60;;;6.90;99.90;;;;;;4839247;29;20116;-65
2023/12/31 05:45:34;;;;;;;7.57;1.35;;;6.90;99.90;;;;;;4838824;29;20641;-65
2023/12/31 05:48:00;;;;;;;2.88;1.63;;;7.00;99.90;;;;;;4840028;29;20139;-65
2023/12/31 05:50:26;;;;;;;2.35;1.17;;;7.10;99.90;;;;;;4820891;29;20043;-65
2023/12/31 05:52:52;;;;;;;3.25;1.48;;;7.10;99.90;;;;;;4840581;29;20037;-65
2023/12/31 05:55:18;;;;;;;3.97;1.33;;;7.10;99.90;;;;;;4840062;29;20088;-66
2023/12/31 05:57:44;;;;;;;1.48;0.80;;;7.10;99.90;;;;;;4839952;29;21551;-65
2023/12/31 06:00:11;;;;;;;3.50;1.25;;;7.20;99.90;;;;;;4840132;29;20089;-65
2023/12/31 06:02:38;;;;;;;10.65;1.83;;;7.30;99.90;;;;;;4840931;29;20054;-66
2023/12/31 06:05:04;;;;;;;2.85;1.65;;;7.40;99.90;;;;;;4840421;29;20026;-65
2023/12/31 06:07:30;;;;;;;3.05;1.23;;;7.40;99.90;;;;;;4840572;29;20026;-66
2023/12/31 06:09:56;;;;;;;1.95;0.82;;;7.50;99.90;;;;;;4838911;29;20432;-66
2023/12/31 06:12:22;;;;;;;2.38;0.90;;;7.60;99.90;;;;;;4839406;29;20042;-65
2023/12/31 06:14:48;;;;;;;1.00;0.77;;;7.70;99.90;;;;;;4838700;29;20073;-65
2023/12/31 06:17:14;;;;;;;10.65;1.45;;;7.80;99.90;;;;;;4839364;29;20034;-65
2023/12/31 06:19:40;;;;;;;1.23;0.68;;;7.80;99.90;;;;;;4839995;29;20358;-65
2023/12/31 06:22:06;;;;;;;2.05;1.00;;;7.80;99.90;;;;;;4839530;29;20026;-66
2023/12/31 06:24:32;;;;;;;3.38;1.13;;;7.80;99.90;;;;;;4840797;29;20514;-65
2023/12/31 06:26:58;;;;;;;3.25;0.90;;;7.80;99.90;;;;;;4840327;29;20056;-65
2023/12/31 06:29:24;;;;;;;2.80;1.25;;;7.80;99.90;;;;;;4842467;29;20033;-65
2023/12/31 06:31:50;;;;;;;9.88;1.42;;;7.70;99.90;;;;;;4843411;29;20120;-65
2023/12/31 06:34:16;;;;;;;5.13;1.42;;;7.60;99.90;;;;;;4844097;29;20621;-65
2023/12/31 06:36:42;;;;;;;2.00;1.17;;;7.70;99.90;;;;;;4843306;29;20037;-65
2023/12/31 06:39:09;;;;;;;2.97;1.30;;;7.70;99.90;;;;;;4843676;29;20029;-65
2023/12/31 06:41:36;;;;;;;2.35;1.33;;;7.70;99.90;;;;;;4836592;29;20034;-66
2023/12/31 06:44:02;;;;;;;1.27;0.95;;;7.70;99.90;;;;;;4842778;29;20030;-65
2023/12/31 06:46:28;;;;;;;1.33;0.85;;;7.70;99.90;;;;;;4835113;29;20042;-65
2023/12/31 06:48:56;;;;;;;1.85;0.88;;;7.60;99.90;;;;;;4843355;29;20044;-64
2023/12/31 06:51:25;;;;;;;1.48;0.95;;;7.50;99.90;;;;;;4843592;29;20045;-65
2023/12/31 06:53:50;;;;;;;2.72;1.15;;;7.50;99.90;;;;;;4843764;29;20093;-65
2023/12/31 06:56:18;;;;;;;2.17;0.85;;;7.50;99.90;;;;;;4836555;29;20041;-65
2023/12/31 06:58:44;;;;;;;2.17;1.52;;;7.50;99.90;;;;;;4843170;29;20476;-65
2023/12/31 07:01:09;;;;;;;3.00;1.23;;;7.60;99.90;;;;;;4841702;29;20097;-65
2023/12/31 07:03:35;;;;;;;2.53;1.25;;;7.60;99.90;;;;;;4843722;29;20033;-64
2023/12/31 07:06:05;;;;;;;2.40;1.23;;;7.60;99.90;;;;;;4842506;29;20045;-64
2023/12/31 07:08:31;;;;;;;5.97;1.40;;;7.50;99.90;;;;;;4842301;29;20034;-64
2023/12/31 07:10:56;;;;;;;2.35;1.73;;;7.40;99.90;;;;;;4836193;29;20115;-63
2023/12/31 07:13:22;;;;;;;4.85;1.83;;;7.40;99.90;;;;;;4842763;29;20044;-64
2023/12/31 07:15:48;;;;;;;1.38;0.85;;;7.40;99.90;;;;;;4842219;29;20030;-64
2023/12/31 07:18:14;;;;;;;2.80;1.00;;;7.40;99.90;;;;;;4842313;29;20387;-64
2023/12/31 07:20:39;;;;;;;2.88;1.52;;;7.40;99.90;;;;;;4842468;29;20037;-64
2023/12/31 07:23:05;;;;;;;0.90;0.70;;;7.40;99.90;;;;;;4843066;29;20038;-64
2023/12/31 07:25:32;;;;;;;3.15;1.27;;;7.40;99.90;;;;;;4840625;29;20034;-65
2023/12/31 07:27:58;;;;;;;2.60;1.35;;;7.40;99.90;;;;;;4838397;29;20082;-68
2023/12/31 07:30:25;;;;;;;2.13;0.93;;;7.40;99.90;;;;;;4825626;29;20134;-74
2023/12/31 07:32:51;;;;;;;4.57;1.58;;;7.40;99.90;;;;;;4840191;29;20038;-71
2023/12/31 07:35:17;;;;;;;4.45;0.85;;;7.40;99.90;;;;;;4821888;29;20113;-71
2023/12/31 07:37:43;;;;;;;1.70;1.00;;;7.50;99.90;;;;;;4838177;29;20455;-71
2023/12/31 07:40:10;;;;;;;2.42;1.20;;;7.50;99.90;;;;;;4831236;29;20424;-71
2023/12/31 07:42:39;;;;;;;2.50;1.10;;;7.60;99.90;;;;;;4839792;29;20057;-71
2023/12/31 07:45:08;;;;;;;1.20;0.90;;;7.60;99.90;;;;;;4838472;29;20560;-71
2023/12/31 07:47:39;;;;;;;8.25;1.98;;;7.60;99.90;;;;;;4837788;29;20121;-71
2023/12/31 07:50:06;;;;;;;3.00;1.13;;;7.60;99.90;;;;;;4841579;29;20117;-63
2023/12/31 07:52:32;;;;;;;5.53;1.08;;;7.60;99.90;;;;;;4842712;29;20062;-62
2023/12/31 07:54:59;;;;;;;1.30;0.73;;;7.60;99.90;;;;;;4840397;29;20034;-63
2023/12/31 07:57:24;;;;;;;1.48;1.17;;;7.60;99.90;;;;;;4837604;29;20084;-64
2023/12/31 07:59:50;;;;;;;4.55;1.00;;;7.60;99.90;;;;;;4842121;29;20461;-65
2023/12/31 08:02:16;;;;;;;5.25;2.00;;;7.60;99.90;;;;;;4841091;29;20121;-64
2023/12/31 08:04:42;;;;;;;1.23;0.80;;;7.60;99.90;;;;;;4841703;29;20041;-64
2023/12/31 08:07:08;;;;;;;4.95;1.58;;;7.60;99.90;;;;;;4835599;29;20037;-64
2023/12/31 08:09:34;;;;;;;1.75;0.95;;;7.60;99.90;;;;;;4841835;29;20061;-63
2023/12/31 08:12:00;;;;;;;1.50;0.90;;;7.60;99.90;;;;;;4833729;29;20506;-64
2023/12/31 08:14:25;;;;;;;1.23;0.90;;;7.60;99.90;;;;;;4842204;29;20121;-62
2023/12/31 08:16:51;;;;;;;0.63;0.60;;;7.60;99.90;;;;;;4818202;29;20057;-64
2023/12/31 08:19:17;;;;;;;1.00;0.77;;;7.70;99.90;;;;;;4842255;29;20037;-64
2023/12/31 08:21:43;;;;;;;7.93;1.67;;;7.70;99.90;;;;;;4840434;29;20410;-62
2023/12/31 08:24:09;;;;;;;1.73;1.00;;;7.70;99.90;;;;;;4842227;29;20096;-62
2023/12/31 08:26:36;;;;;;;1.48;0.93;;;7.70;99.90;;;;;;4841538;29;20125;-64
2023/12/31 08:29:03;;;;;;;5.00;1.13;;;7.80;99.90;;;;;;4825527;29;20067;-64
2023/12/31 08:31:29;;;;;;;2.72;1.33;;;7.80;99.90;;;;;;4835711;29;20082;-65
2023/12/31 08:33:54;;;;;;;3.60;1.92;;;7.90;99.90;;;;;;4841354;29;20026;-64
2023/12/31 08:36:20;;;;;;;2.55;1.48;;;7.90;99.90;;;;;;4833534;29;20105;-64
2023/12/31 08:38:46;;;;;;;2.10;1.23;;;7.90;99.90;;;;;;4841360;29;20065;-65
2023/12/31 08:41:12;;;;;;;2.70;1.60;;;7.90;99.90;;;;;;4841241;29;20029;-65
2023/12/31 08:43:37;;;;;;;3.00;1.38;;;8.00;99.90;;;;;;4841079;29;20585;-65
2023/12/31 08:46:03;;;;;;;2.70;1.35;;;8.00;99.90;;;;;;4841814;29;20044;-65
2023/12/31 08:48:29;;;;;;;3.08;1.25;;;8.00;99.90;;;;;;4840710;29;20044;-67
2023/12/31 08:50:55;;;;;;;2.25;1.30;;;8.00;99.90;;;;;;4841549;29;20038;-64
2023/12/31 08:53:24;;;;;;;3.97;1.33;;;8.10;99.90;;;;;;4841101;29;20171;-64
2023/12/31 08:55:51;;;;;;;2.10;1.30;;;8.10;99.90;;;;;;4839975;29;20038;-64
2023/12/31 08:58:17;;;;;;;2.15;1.27;;;8.10;99.90;;;;;;4840820;29;20033;-64
2023/12/31 09:00:43;;;;;;;3.78;1.23;;;8.10;99.90;;;;;;4839561;29;20045;-64
2023/12/31 09:03:09;;;;;;;2.22;1.10;;;8.10;99.90;;;;;;4824947;29;20034;-64
2023/12/31 09:05:35;;;;;;;1.67;0.68;;;8.10;99.90;;;;;;4823242;29;20109;-64
2023/12/31 09:08:02;;;;;;;1.60;1.13;;;8.20;99.90;;;;;;4839733;29;20030;-64
2023/12/31 09:10:28;;;;;;;3.05;1.33;;;8.10;99.90;;;;;;4823349;29;20049;-64
2023/12/31 09:12:54;;;;;;;2.70;1.35;;;8.20;99.90;;;;;;4840383;29;20046;-65
2023/12/31 09:15:20;;;;;;;3.78;1.27;;;8.20;99.90;;;;;;4822202;29;20040;-53
2023/12/31 09:17:46;;;;;;;3.80;1.30;;;8.20;99.90;;;;;;4840554;29;20098;-47
2023/12/31 09:20:12;;;;;;;3.13;1.27;;;8.20;99.90;;;;;;4822578;29;20026;-62
2023/12/31 09:22:39;;;;;;;2.47;1.30;;;8.20;99.90;;;;;;4824590;29;20486;-63
2023/12/31 09:25:08;;;;;;;4.22;1.50;;;8.20;99.90;;;;;;4840003;29;20057;-63
2023/12/31 09:27:36;;;;;;;4.47;1.52;;;8.30;99.90;;;;;;4840206;29;20041;-63
2023/12/31 09:30:02;;;;;;;3.45;1.52;;;8.30;99.90;;;;;;4815628;29;20069;-64
2023/12/31 09:32:28;;;;;;;3.80;1.05;;;8.30;99.90;;;;;;4840132;29;20460;-62
2023/12/31 09:34:54;;;;;;;2.80;1.20;;;8.40;99.90;;;;;;4839343;29;20042;-63
2023/12/31 09:37:20;;;;;;;2.42;1.30;;;8.50;99.90;;;;;;4839304;29;20033;-64
2023/12/31 09:39:47;;;;;;;3.58;1.40;;;8.50;99.90;;;;;;4837510;29;20034;-63
2023/12/31 09:42:15;;;;;;;3.88;1.77;;;8.60;99.90;;;;;;4840895;29;20506;-64
2023/12/31 09:44:42;;;;;;;2.97;1.40;;;8.60;99.90;;;;;;4823323;29;20041;-63
2023/12/31 09:47:10;;;;;;;1.95;1.02;;;8.50;99.90;;;;;;4840306;29;20436;-64
2023/12/31 09:49:38;;;;;;;2.55;1.35;;;8.60;99.90;;;;;;4836641;29;20041;-64
2023/12/31 09:52:09;;;;;;;3.45;1.23;;;8.70;99.90;;;;;;4823482;29;20048;-63
2023/12/31 09:54:39;;;;;;;1.00;0.80;;;8.80;99.90;;;;;;4840183;29;20042;-63
2023/12/31 09:57:06;;;;;;;3.38;1.35;;;8.80;99.90;;;;;;4840189;29;20440;-63
2023/12/31 09:59:32;;;;;;;2.78;1.33;;;8.80;99.90;;;;;;4839442;29;20072;-63
2023/12/31 10:02:05;;;;;;;2.78;1.30;;;8.80;99.90;;;;;;4839751;29;20112;-64
2023/12/31 10:04:31;;;;;;;2.17;1.10;;;8.90;99.90;;;;;;4841544;29;20041;-64
2023/12/31 10:06:59;;;;;;;2.85;1.15;;;9.00;99.90;;;;;;4842216;29;20100;-63
2023/12/31 10:09:30;;;;;;;3.25;1.65;;;9.00;99.90;;;;;;4842910;29;20034;-63
2023/12/31 10:11:56;;;;;;;1.10;0.70;;;9.00;99.90;;;;;;4843539;29;20037;-64
2023/12/31 10:14:23;;;;;;;3.47;1.20;;;8.90;99.90;;;;;;4843051;29;20038;-63
2023/12/31 10:16:49;;;;;;;2.67;0.90;;;8.80;99.90;;;;;;4830627;29;20042;-63
2023/12/31 10:19:15;;;;;;;4.13;0.80;;;8.70;99.90;;;;;;4842763;29;20045;-64
2023/12/31 10:21:42;;;;;;;2.75;1.25;;;8.60;99.90;;;;;;4836020;29;20038;-64
2023/12/31 10:24:11;;;;;;;1.45;0.90;;;8.70;99.90;;;;;;4825540;29;20034;-63
2023/12/31 10:26:39;;;;;;;2.40;0.90;;;8.60;99.90;;;;;;4843687;29;20044;-62
2023/12/31 10:29:05;;;;;;;2.05;1.17;;;8.60;99.90;;;;;;4841360;29;20038;-63
2023/12/31 10:31:32;;;;;;;3.05;1.45;;;8.60;99.90;;;;;;4840296;24;20105;-62
2023/12/31 10:34:17;;;;;;;4.03;1.58;;;8.50;99.90;;;;;;4843362;29;20030;-62
2023/12/31 10:36:47;;;;;;;1.90;1.17;;;8.50;99.90;;;;;;4843456;29;20066;-62
2023/12/31 10:39:28;;;;;;;2.60;1.70;;;8.50;99.90;;;;;;4850479;29;20038;-66
2023/12/31 10:42:00;;;;;;;2.08;1.17;;;8.50;99.90;;;;;;4846051;29;20703;-63
2023/12/31 10:44:26;;;;;;;;;;;8.50;99.90;;;;;;4817460;29;20121;-65
2023/12/31 10:47:02;;;;;;;6.47;1.00;;;8.50;99.90;;;;;;4828697;29;19923;-64
2023/12/31 10:49:31;;;;;;;2.70;1.23;;;8.60;99.90;;;;;;4825134;29;20114;-64
2023/12/31 10:52:04;;;;;;;1.88;1.20;;;8.70;99.90;;;;;;4830773;29;20130;-65
2023/12/31 10:54:44;;;;;;;2.75;1.50;;;8.80;99.90;;;;;;4827362;29;20065;-65
2023/12/31 10:57:10;;;;;;;1.98;1.30;;;8.80;99.90;;;;;;4824607;29;20081;-66
2023/12/31 10:59:38;;;;;;;2.58;1.08;;;8.80;99.90;;;;;;4825320;29;20026;-65
2023/12/31 11:02:04;;;;;;;3.75;1.38;;;8.80;99.90;;;;;;4826491;29;20072;-66
2023/12/31 11:04:32;;;;;;;2.47;1.48;;;8.80;99.90;;;;;;4836851;29;20460;-66
2023/12/31 11:07:00;;;;;;;2.08;1.17;;;8.70;99.90;;;;;;4832615;29;20073;-66
2023/12/31 11:09:28;;;;;;;5.32;2.05;;;8.70;99.90;;;;;;4825477;29;20046;-67
2023/12/31 11:11:54;;;;;;;3.58;1.13;;;8.60;99.90;;;;;;4842917;29;20037;-66
2023/12/31 11:14:28;;;;;;;4.75;1.95;;;8.50;99.90;;;;;;4831978;29;20045;-66
2023/12/31 11:17:21;;;;;;;6.63;2.13;;;8.50;99.90;;;;;;4824271;29;20498;-66
2023/12/31 11:20:35;;;;;;;2.53;1.58;;;8.40;99.90;;;;;;4824730;29;20452;-66
2023/12/31 11:23:25;;;;;;;3.25;1.38;;;8.40;99.90;;;;;;4821716;29;20146;-67
2023/12/31 11:25:51;;;;;;;4.28;1.73;;;8.40;99.90;;;;;;4841179;29;20030;-66
2023/12/31 11:28:17;;;;;;;1.92;1.05;;;8.40;99.90;;;;;;4842978;29;20034;-66
2023/12/31 11:30:51;;;;;;;2.80;1.83;;;8.40;99.90;;;;;;4842394;29;20044;-66
2023/12/31 11:33:24;;;;;;;1.98;1.13;;;8.40;99.90;;;;;;4838519;29;20041;-66
2023/12/31 11:35:56;;;;;;;3.60;1.33;;;8.50;99.90;;;;;;4840016;29;20026;-65
2023/12/31 11:38:22;;;;;;;1.98;1.10;;;8.50;99.90;;;;;;4815777;29;20034;-65
2023/12/31 11:40:56;;;;;;;3.60;1.20;;;8.60;99.90;;;;;;4835863;29;20053;-66
2023/12/31 11:43:23;;;;;;;4.07;1.67;;;8.60;99.90;;;;;;4820431;29;20027;-66
2023/12/31 11:45:50;;;;;;;1.10;0.85;;;8.70;99.90;;;;;;4838964;29;20113;-66
2023/12/31 11:48:28;;;;;;;1.63;0.90;;;8.70;99.90;;;;;;4834773;29;20022;-65
2023/12/31 11:50:58;;;;;;;1.73;1.08;;;8.70;99.90;;;;;;4831569;29;20098;-66
2023/12/31 11:53:27;;;;;;;4.45;1.83;;;8.80;99.90;;;;;;4837129;29;20103;-65
2023/12/31 11:55:56;;;;;;;2.13;1.20;;;8.90;99.90;;;;;;4827915;29;20038;-65
2023/12/31 11:58:21;;;;;;;4.07;1.30;;;8.90;99.90;;;;;;4823826;29;20503;-65
2023/12/31 12:00:52;;;;;;;2.28;0.80;;;8.90;99.90;;;;;;4824078;29;20050;-65
2023/12/31 12:03:19;;;;;;;1.10;0.87;;;9.00;99.90;;;;;;4824469;29;20038;-66
2023/12/31 12:05:52;;;;;;;2.25;1.48;;;9.00;99.90;;;;;;4827679;29;20298;-65
2023/12/31 12:08:19;;;;;;;2.47;1.05;;;9.00;99.90;;;;;;4816812;29;20085;-67
2023/12/31 12:10:45;;;;;;;3.72;1.50;;;9.00;99.90;;;;;;4825609;29;20030;-67
2023/12/31 12:13:11;;;;;;;0.90;0.68;;;9.00;99.90;;;;;;4843791;29;20114;-67
2023/12/31 12:15:38;;;;;;;2.38;1.02;;;9.10;99.90;;;;;;4840674;29;20026;-66
2023/12/31 12:18:21;;;;;;;1.65;0.77;;;9.10;99.90;;;;;;4825206;29;20026;-67
2023/12/31 12:20:47;;;;;;;1.63;0.55;;;9.10;99.90;;;;;;4840947;29;20533;-67
2023/12/31 12:23:21;;;;;;;3.97;1.25;;;9.20;99.90;;;;;;4835372;29;20690;-65
2023/12/31 12:25:47;;;;;;;2.22;1.08;;;9.20;99.90;;;;;;4839904;29;20029;-71
2023/12/31 12:28:14;;;;;;;1.73;0.90;;;9.20;99.90;;;;;;4825551;29;20038;-67
2023/12/31 12:30:43;;;;;;;1.83;0.82;;;9.20;99.90;;;;;;4835415;29;20057;-67
2023/12/31 12:33:11;;;;;;;1.45;0.93;;;9.30;99.90;;;;;;4835878;29;20402;-66
2023/12/31 12:35:39;;;;;;;2.33;1.17;;;9.30;99.90;;;;;;4830593;29;20045;-67
2023/12/31 12:38:06;;;;;;;1.38;0.63;;;9.40;99.90;;;;;;4822224;29;20065;-67
2023/12/31 12:40:32;;;;;;;0.73;0.38;;;9.40;99.90;;;;;;4826150;29;20132;-67
2023/12/31 12:43:02;;;;;;;0.85;0.43;;;9.50;99.90;;;;;;4845781;29;20038;-66
2023/12/31 12:45:29;;;;;;;0.52;0.40;;;9.60;99.90;;;;;;4825338;29;20030;-67
2023/12/31 12:47:59;;;;;;;3.75;0.80;;;9.60;99.90;;;;;;4828971;29;20034;-67
2023/12/31 12:50:26;;;;;;;3.40;2.05;;;9.70;99.90;;;;;;4819781;29;20403;-67
2023/12/31 12:52:53;;;;;;;0.35;0.30;;;9.80;99.90;;;;;;4828898;29;20034;-67
2023/12/31 12:55:19;;;;;;;1.38;0.60;;;9.70;99.90;;;;;;4816667;29;20057;-66
2023/12/31 12:57:45;;;;;;;1.27;0.70;;;9.60;99.90;;;;;;4835533;29;20399;-66
2023/12/31 13:00:12;;;;;;;1.35;0.85;;;9.70;99.90;;;;;;4817799;29;20034;-66